Cave City, Kentucky
Current Conditions -  °F | °C
As of 2:55 AM on Sunday 23 Nov 2014 (Local Time) from KGLW Reporting Station
Scattered Clouds Scattered Clouds  
Wind Chill: 52°   Ceiling: Unl
Heat Index: 52°   Visibility: 10mi
Dew Point: 36°   Wind: 3mph
Humidity: 54%   Direction: 150°SSE
Pressure: 30"   Gusts: NA
Location:  37.14°N, 85.96°W
Report Text: KGLW 230855Z AUTO 15003KT 10SM SCT040 11/02 A3000 RMK AO2 T01110020
Loading
Personal Weather Stations






























Interactive Weather Map New forecast layout! Learn more

10-Day Weather Forecast

Advertisements
Track Severe Weather on mobile